Terminal Aerodrome Forecast
Issued by NWS

Home | Current Version | Previous Version | Text Only | Print | Product List | Glossary On
Versions: 1 2 3 4 5 6 7 8 9 10 11 12 13 14 15 16 17 18 19 20 21
000
FTUS43 KMQT 102300
TAFIWD
TAF
KIWD 102338Z 1100/1124 20008KT P6SM FEW060 BKN200
     FM110500 19010KT P6SM BKN150 WS010/21035KT
     FM111300 20014G19KT P6SM -SHRA SCT030 BKN050
     FM111700 20015G21KT P6SM BKN050
      AMD LTD TO CLD VIS AND WIND=

USA.gov is the U.S. government's official web portal to all federal, state and local government web resources and services.